Time;durP1;ratioP1;P1;durP2;ratioP2;P2;SDS_P1;SDS_P2;PMS_P1;PMS_P2;Temp;Humidity;BMP_temperature;BMP_pressure;BME280_temperature;BME280_humidity;BME280_pressure;Samples;Min_cycle;Max_cycle;Signal;HPM_P1;HPM_P2
2024/04/05 00:01:49;;;;;;;1.08;0.38;;;12.90;55.50;;;;;;5014274;28;20057;-71
2024/04/05 00:04:16;;;;;;;0.85;0.65;;;12.80;56.40;;;;;;5032832;28;20034;-76
2024/04/05 00:06:42;;;;;;;0.43;0.17;;;12.80;56.20;;;;;;5031350;28;20033;-76
2024/04/05 00:09:08;;;;;;;0.60;0.28;;;12.80;56.20;;;;;;5032955;28;20037;-76
2024/04/05 00:11:34;;;;;;;1.08;0.75;;;12.80;56.50;;;;;;5030784;28;20550;-71
2024/04/05 00:14:00;;;;;;;0.13;0.13;;;12.70;56.50;;;;;;5032918;28;20069;-76
2024/04/05 00:16:26;;;;;;;0.32;0.32;;;12.60;56.50;;;;;;5032606;28;20041;-71
2024/04/05 00:18:55;;;;;;;0.10;0.10;;;12.50;57.10;;;;;;5031166;28;20040;-71
2024/04/05 00:21:21;;;;;;;0.10;0.10;;;12.40;57.10;;;;;;5030747;28;20394;-75
2024/04/05 00:23:49;;;;;;;0.10;0.10;;;12.40;57.40;;;;;;5031174;28;20037;-71
2024/04/05 00:26:15;;;;;;;0.10;0.10;;;12.40;57.30;;;;;;5031062;28;20041;-76
2024/04/05 00:28:41;;;;;;;0.20;0.20;;;12.40;57.70;;;;;;5031226;28;20030;-76
2024/04/05 00:31:10;;;;;;;0.15;0.15;;;12.50;57.50;;;;;;5031977;28;20033;-76
2024/04/05 00:33:37;;;;;;;0.88;0.60;;;12.50;57.60;;;;;;5032499;28;20046;-76
2024/04/05 00:36:05;;;;;;;2.55;0.50;;;12.40;56.80;;;;;;5030811;28;20483;-71
2024/04/05 00:38:31;;;;;;;0.20;0.20;;;12.40;57.30;;;;;;5030840;28;20046;-76
2024/04/05 00:40:57;;;;;;;0.75;0.75;;;12.40;57.90;;;;;;5013887;28;20049;-71
2024/04/05 00:43:23;;;;;;;;;;;12.30;57.60;;;;;;5031761;28;20025;-75
2024/04/05 00:45:51;;;;;;;0.08;0.08;;;12.30;58.00;;;;;;5030431;28;19920;-75
2024/04/05 00:48:21;;;;;;;0.43;0.28;;;12.20;57.50;;;;;;5031881;28;20041;-71
2024/04/05 00:50:49;;;;;;;0.30;0.25;;;12.20;57.80;;;;;;5030042;28;20045;-71
2024/04/05 00:53:36;;;;;;;0.10;0.10;;;12.10;57.80;;;;;;5032433;28;20026;-76
2024/04/05 00:56:03;;;;;;;0.10;0.10;;;12.00;58.60;;;;;;5014268;28;20218;-76
2024/04/05 00:58:29;;;;;;;0.10;0.10;;;11.90;58.60;;;;;;5031663;28;20041;-76
2024/04/05 01:00:56;;;;;;;0.10;0.10;;;11.90;59.00;;;;;;5030003;28;20091;-76
2024/04/05 01:03:22;;;;;;;0.13;0.10;;;11.80;58.80;;;;;;5030637;28;20406;-71
2024/04/05 01:05:49;;;;;;;;;;;11.80;58.50;;;;;;5031078;28;20045;-71
2024/04/05 01:11:02;;;;;;;0.25;0.25;;;11.80;58.80;;;;;;5029983;28;20445;-71
2024/04/05 01:13:28;;;;;;;0.20;0.20;;;11.80;58.90;;;;;;5031451;28;20030;-71
2024/04/05 01:15:54;;;;;;;0.10;0.10;;;11.70;59.40;;;;;;5030186;28;20036;-71
2024/04/05 01:18:20;;;;;;;1.38;1.05;;;11.70;59.60;;;;;;5030472;28;20034;-71
2024/04/05 01:20:50;;;;;;;2.95;1.15;;;11.70;59.70;;;;;;5013055;28;20044;-76
2024/04/05 01:23:21;;;;;;;1.45;0.98;;;11.70;59.40;;;;;;5029994;28;20081;-71
2024/04/05 01:25:47;;;;;;;2.65;1.42;;;11.60;59.30;;;;;;5030012;28;20060;-76
2024/04/05 01:28:15;;;;;;;0.55;0.20;;;11.70;59.40;;;;;;5031793;28;20034;-76
2024/04/05 01:30:41;;;;;;;0.30;0.22;;;11.60;59.40;;;;;;5029361;28;20129;-71
2024/04/05 01:33:07;;;;;;;0.75;0.45;;;11.60;59.40;;;;;;5013602;28;20040;-75
2024/04/05 01:35:34;;;;;;;0.13;0.13;;;11.50;59.50;;;;;;5030005;28;20417;-76
2024/04/05 01:38:00;;;;;;;0.65;0.40;;;11.50;59.50;;;;;;5013450;28;20413;-71
2024/04/05 01:40:26;;;;;;;;;;;11.50;60.00;;;;;;5030146;28;20501;-71
2024/04/05 01:42:53;;;;;;;0.10;0.10;;;11.40;59.90;;;;;;5030055;28;19925;-76
2024/04/05 01:45:20;;;;;;;0.10;0.10;;;11.30;59.50;;;;;;5029962;28;20091;-75
2024/04/05 01:47:46;;;;;;;0.20;0.20;;;11.20;59.80;;;;;;5029872;28;20195;-71
2024/04/05 01:50:15;;;;;;;0.10;0.10;;;11.20;60.10;;;;;;5029513;28;20070;-76
2024/04/05 01:52:41;;;;;;;0.50;0.30;;;11.30;60.20;;;;;;5029990;28;20029;-76
2024/04/05 01:55:07;;;;;;;;;;;11.30;60.10;;;;;;5031729;28;20034;-75
2024/04/05 01:57:52;;;;;;;0.57;0.40;;;11.20;59.50;;;;;;5030238;28;19971;-73
2024/04/05 02:00:19;;;;;;;0.08;0.08;;;11.20;59.90;;;;;;5029379;28;20445;-71
2024/04/05 02:02:45;;;;;;;;;;;11.10;59.70;;;;;;5031645;28;20045;-71
2024/04/05 02:05:11;;;;;;;0.10;0.10;;;11.10;60.50;;;;;;5029719;28;19913;-76
2024/04/05 02:07:37;;;;;;;0.22;0.20;;;11.10;60.70;;;;;;5031456;28;20474;-76
2024/04/05 02:10:03;;;;;;;0.95;0.38;;;11.00;60.70;;;;;;5029407;28;20042;-75
2024/04/05 02:12:29;;;;;;;;;;;11.00;60.20;;;;;;5013983;28;20048;-71
2024/04/05 02:14:56;;;;;;;0.20;0.20;;;11.00;61.10;;;;;;5029560;28;19921;-75
2024/04/05 02:17:22;;;;;;;0.10;0.10;;;10.90;61.10;;;;;;5029644;28;20272;-71
2024/04/05 02:19:50;;;;;;;0.10;0.10;;;10.80;61.00;;;;;;5013202;28;20046;-76
2024/04/05 02:22:17;;;;;;;0.47;0.40;;;10.80;61.00;;;;;;5028904;28;20437;-76
2024/04/05 02:24:43;;;;;;;0.98;0.55;;;10.70;61.40;;;;;;5031175;28;20033;-71
2024/04/05 02:27:09;;;;;;;0.47;0.47;;;10.70;61.30;;;;;;5029387;28;20052;-75
2024/04/05 02:29:36;;;;;;;0.55;0.55;;;10.70;61.70;;;;;;5013173;28;20399;-71
2024/04/05 02:32:02;;;;;;;0.13;0.13;;;10.70;60.80;;;;;;5028929;28;20049;-76
2024/04/05 02:34:29;;;;;;;0.30;0.30;;;10.60;61.00;;;;;;5029609;28;20033;-76
2024/04/05 02:36:55;;;;;;;0.13;0.10;;;10.50;61.60;;;;;;5015497;28;20390;-75
2024/04/05 02:39:21;;;;;;;0.20;0.10;;;10.50;61.70;;;;;;5033254;28;20029;-71
2024/04/05 02:41:48;;;;;;;0.15;0.15;;;10.50;61.60;;;;;;5032523;28;20037;-76
2024/04/05 02:44:14;;;;;;;1.13;0.63;;;10.50;61.30;;;;;;5016398;28;20033;-71
2024/04/05 02:46:42;;;;;;;0.00;0.00;;;10.50;61.40;;;;;;5032677;28;20107;-76
2024/04/05 02:49:08;;;;;;;0.30;0.20;;;10.50;61.30;;;;;;5032974;28;20029;-76
2024/04/05 02:51:36;;;;;;;0.10;0.10;;;10.50;61.50;;;;;;5032375;28;20124;-71
2024/04/05 02:54:02;;;;;;;0.13;0.13;;;10.40;61.00;;;;;;5034258;28;20119;-71
2024/04/05 02:56:29;;;;;;;0.13;0.13;;;10.40;60.50;;;;;;5032612;28;20059;-71
2024/04/05 02:58:58;;;;;;;0.28;0.20;;;10.40;60.70;;;;;;5033968;28;20037;-75
2024/04/05 03:01:25;;;;;;;0.10;0.10;;;10.30;60.90;;;;;;5032180;28;20127;-76
2024/04/05 03:03:51;;;;;;;;;;;10.30;61.80;;;;;;5016764;28;20033;-71
2024/04/05 03:06:19;;;;;;;0.10;0.10;;;10.30;61.60;;;;;;5033992;28;19943;-71
2024/04/05 03:08:46;;;;;;;0.20;0.20;;;10.20;61.70;;;;;;5032506;28;20021;-76
2024/04/05 03:11:12;;;;;;;0.10;0.10;;;10.20;61.70;;;;;;5015514;28;20052;-76
2024/04/05 03:13:40;;;;;;;0.10;0.10;;;10.20;62.20;;;;;;5032529;28;20041;-75
2024/04/05 03:16:06;;;;;;;0.98;0.20;;;10.20;61.90;;;;;;5033560;28;20042;-76
2024/04/05 03:18:32;;;;;;;1.30;0.77;;;10.10;62.50;;;;;;5033693;28;20435;-76
2024/04/05 03:20:58;;;;;;;3.63;0.52;;;10.10;62.80;;;;;;5031958;28;20240;-71
2024/04/05 03:23:24;;;;;;;;;;;10.10;62.80;;;;;;5033113;28;20029;-71
2024/04/05 03:25:50;;;;;;;0.20;0.20;;;10.10;62.60;;;;;;5033669;28;19944;-71
2024/04/05 03:28:17;;;;;;;1.17;0.50;;;10.10;62.70;;;;;;5032485;28;20032;-71
2024/04/05 03:30:43;;;;;;;0.73;0.52;;;10.10;62.80;;;;;;5031534;28;20050;-76
2024/04/05 03:33:09;;;;;;;0.10;0.10;;;10.10;62.40;;;;;;5032142;28;20025;-71
2024/04/05 03:35:53;;;;;;;0.10;0.10;;;10.10;62.50;;;;;;5015584;28;20060;-75
2024/04/05 03:38:19;;;;;;;0.32;0.20;;;10.00;62.80;;;;;;5033285;28;20075;-74
2024/04/05 03:40:45;;;;;;;0.25;0.20;;;9.90;62.90;;;;;;5014535;28;20440;-71
2024/04/05 03:43:11;;;;;;;1.55;1.45;;;9.80;62.80;;;;;;5031980;28;20026;-75
2024/04/05 03:45:37;;;;;;;1.08;0.57;;;9.80;62.90;;;;;;5033422;28;20045;-71
2024/04/05 03:48:04;;;;;;;0.57;0.40;;;9.80;63.00;;;;;;5032422;28;20057;-76
2024/04/05 03:50:30;;;;;;;0.00;0.00;;;9.80;62.90;;;;;;5031178;28;20033;-71
2024/04/05 03:52:56;;;;;;;0.32;0.32;;;9.80;63.10;;;;;;5033122;28;20107;-76
2024/04/05 03:55:22;;;;;;;0.50;0.35;;;9.80;63.50;;;;;;5015079;28;20506;-76
2024/04/05 03:57:52;;;;;;;0.93;0.40;;;9.80;63.40;;;;;;5032806;28;20045;-76
2024/04/05 04:00:21;;;;;;;0.77;0.25;;;9.80;63.30;;;;;;5031030;28;20052;-74
2024/04/05 04:03:09;;;;;;;0.10;0.10;;;9.80;63.50;;;;;;5031977;28;20387;-71
2024/04/05 04:05:35;;;;;;;0.30;0.20;;;9.80;64.00;;;;;;5032746;28;20061;-76
2024/04/05 04:08:01;;;;;;;0.13;0.13;;;9.70;64.70;;;;;;5031456;28;20053;-76
2024/04/05 04:10:28;;;;;;;1.50;0.75;;;9.70;65.10;;;;;;5030981;28;20037;-76
2024/04/05 04:12:54;;;;;;;0.30;0.20;;;9.70;65.10;;;;;;5031519;28;20111;-71
2024/04/05 04:15:20;;;;;;;0.20;0.20;;;9.70;65.30;;;;;;5032269;28;20038;-76
2024/04/05 04:17:46;;;;;;;0.20;0.20;;;9.70;65.30;;;;;;5031367;28;20106;-76
2024/04/05 04:20:12;;;;;;;0.47;0.28;;;9.70;65.10;;;;;;5031944;28;20494;-76
2024/04/05 04:22:38;;;;;;;0.50;0.30;;;9.70;64.70;;;;;;5031459;28;20034;-76
2024/04/05 04:25:05;;;;;;;0.35;0.20;;;9.60;64.80;;;;;;5031005;28;20041;-76
2024/04/05 04:27:31;;;;;;;0.28;0.22;;;9.60;64.60;;;;;;5030979;28;20060;-76
2024/04/05 04:29:58;;;;;;;0.10;0.10;;;9.60;65.20;;;;;;5032438;28;20084;-75
2024/04/05 04:32:25;;;;;;;0.50;0.30;;;9.70;65.10;;;;;;5030446;28;20051;-76
2024/04/05 04:34:50;;;;;;;;;;;9.60;64.90;;;;;;5032789;28;20079;-71
2024/04/05 04:37:19;;;;;;;0.20;0.20;;;9.60;65.60;;;;;;5030966;28;20004;-76
2024/04/05 04:39:46;;;;;;;0.50;0.35;;;9.50;65.00;;;;;;5014286;28;20088;-77
2024/04/05 04:42:13;;;;;;;0.20;0.20;;;9.50;65.30;;;;;;5030311;28;20047;-71
2024/04/05 04:44:39;;;;;;;0.20;0.20;;;9.50;65.20;;;;;;5031035;28;20088;-77
2024/04/05 04:47:06;;;;;;;0.47;0.43;;;9.50;65.40;;;;;;5030446;28;20057;-76
2024/04/05 04:49:33;;;;;;;0.32;0.10;;;9.50;65.80;;;;;;5032123;28;20057;-71
2024/04/05 04:51:59;;;;;;;0.10;0.10;;;9.40;65.70;;;;;;5013720;28;20046;-73
2024/04/05 04:54:25;;;;;;;5.07;0.30;;;9.40;65.50;;;;;;5014197;28;20026;-75
2024/04/05 04:56:51;;;;;;;0.22;0.22;;;9.40;64.70;;;;;;5031538;28;20092;-71
2024/04/05 04:59:17;;;;;;;0.55;0.47;;;9.50;65.50;;;;;;5030950;28;20034;-71
2024/04/05 05:01:43;;;;;;;1.40;0.73;;;9.50;65.60;;;;;;5031301;28;20037;-71
2024/04/05 05:04:12;;;;;;;0.10;0.10;;;9.50;65.40;;;;;;5030562;28;20110;-71
2024/04/05 05:06:56;;;;;;;1.33;0.57;;;9.60;65.10;;;;;;5031583;28;20184;-71
2024/04/05 05:09:22;;;;;;;1.17;0.80;;;9.60;65.00;;;;;;5030500;28;20037;-76
2024/04/05 05:11:49;;;;;;;2.60;1.25;;;9.60;64.90;;;;;;5013285;28;20038;-76
2024/04/05 05:14:15;;;;;;;0.60;0.52;;;9.70;65.30;;;;;;5031529;28;20387;-71
2024/04/05 05:16:42;;;;;;;0.52;0.40;;;9.70;65.00;;;;;;5031478;28;20406;-71
2024/04/05 05:19:09;;;;;;;0.20;0.20;;;9.70;65.10;;;;;;5013646;28;20396;-71
2024/04/05 05:21:36;;;;;;;0.60;0.60;;;9.80;65.20;;;;;;5013218;28;20034;-76
2024/04/05 05:24:04;;;;;;;0.75;0.47;;;9.80;64.80;;;;;;5030190;28;20406;-71
2024/04/05 05:26:30;;;;;;;2.53;0.77;;;9.80;64.40;;;;;;5031345;28;20030;-76
2024/04/05 05:28:57;;;;;;;1.55;0.73;;;9.80;64.90;;;;;;5013674;28;20502;-76
2024/04/05 05:31:23;;;;;;;1.05;0.32;;;9.90;65.60;;;;;;5030845;28;20064;-76
2024/04/05 05:33:50;;;;;;;0.35;0.35;;;9.80;65.70;;;;;;5030028;28;20152;-76
2024/04/05 05:36:16;;;;;;;0.20;0.20;;;9.80;65.90;;;;;;5031316;28;20042;-76
2024/04/05 05:38:42;;;;;;;1.25;0.63;;;9.90;66.10;;;;;;5030004;28;20041;-70
2024/04/05 05:41:08;;;;;;;0.20;0.20;;;10.00;65.90;;;;;;5030723;28;20561;-71
2024/04/05 05:43:34;;;;;;;4.18;1.00;;;10.00;66.50;;;;;;5030021;28;20397;-76
2024/04/05 05:46:00;;;;;;;0.20;0.20;;;10.00;66.90;;;;;;5012882;28;20038;-71
2024/04/05 05:48:27;;;;;;;0.52;0.50;;;10.10;68.40;;;;;;5030017;28;20033;-76
2024/04/05 05:50:54;;;;;;;0.68;0.50;;;10.10;68.20;;;;;;5030623;28;20128;-71
2024/04/05 05:53:20;;;;;;;0.28;0.22;;;10.20;67.60;;;;;;5029945;28;20113;-75
2024/04/05 05:56:05;;;;;;;0.98;0.57;;;10.40;67.60;;;;;;5030673;28;20052;-76
2024/04/05 05:58:31;;;;;;;0.40;0.25;;;10.50;67.20;;;;;;5029546;28;20124;-75
2024/04/05 06:00:57;;;;;;;0.25;0.10;;;10.70;66.60;;;;;;5029090;28;20052;-71
2024/04/05 06:03:25;;;;;;;0.25;0.25;;;10.70;66.70;;;;;;5031008;28;20426;-76
2024/04/05 06:05:51;;;;;;;1.48;0.70;;;10.90;66.70;;;;;;5029480;28;20064;-71
2024/04/05 06:08:18;;;;;;;1.13;0.70;;;11.00;66.00;;;;;;5029204;28;20502;-71
2024/04/05 06:10:55;;;;;;;3.28;0.85;;;11.00;65.60;;;;;;5047707;28;20690;-76
2024/04/05 06:13:21;;;;;;;1.35;0.50;;;11.10;66.20;;;;;;5016920;28;20030;-76
2024/04/05 06:15:54;;;;;;;2.90;0.32;;;11.20;67.10;;;;;;5033413;28;20033;-70
2024/04/05 06:18:20;;;;;;;1.70;0.88;;;11.30;67.40;;;;;;5016974;28;20394;-76
2024/04/05 06:20:55;;;;;;;1.45;1.05;;;11.40;68.20;;;;;;5034168;28;20060;-71
2024/04/05 06:23:28;;;;;;;1.20;0.90;;;11.60;67.50;;;;;;5048153;28;20031;-76
2024/04/05 06:26:14;;;;;;;2.17;1.40;;;11.80;67.70;;;;;;5037255;28;20033;-74
2024/04/05 06:28:40;;;;;;;0.55;0.30;;;11.90;67.00;;;;;;5033564;28;20030;-76
2024/04/05 06:31:06;;;;;;;8.73;0.82;;;12.00;66.60;;;;;;5032880;28;20391;-71
2024/04/05 06:33:32;;;;;;;0.10;0.10;;;12.20;66.70;;;;;;5034372;28;20387;-71
2024/04/05 06:36:17;;;;;;;1.13;1.08;;;12.30;65.70;;;;;;5037675;28;20053;-71
2024/04/05 06:38:43;;;;;;;0.40;0.30;;;12.40;64.90;;;;;;5034203;28;20029;-75
2024/04/05 06:41:09;;;;;;;2.80;2.10;;;12.60;64.80;;;;;;5041928;28;20041;-71
2024/04/05 06:43:35;;;;;;;1.10;0.80;;;12.70;66.00;;;;;;5034830;28;20025;-71
2024/04/05 06:46:07;;;;;;;0.45;0.40;;;12.90;64.80;;;;;;5032673;28;20103;-71
2024/04/05 06:48:35;;;;;;;0.63;0.63;;;13.00;65.10;;;;;;5032943;28;20076;-76
2024/04/05 06:53:54;;;;;;;0.38;0.35;;;13.30;64.60;;;;;;5033362;28;20822;-71
2024/04/05 06:56:20;;;;;;;0.80;0.50;;;13.40;63.80;;;;;;5043681;28;20462;-71
2024/04/05 06:58:46;;;;;;;0.98;0.85;;;13.50;63.30;;;;;;5052566;28;20032;-75
2024/04/05 07:01:12;;;;;;;1.55;0.43;;;13.60;63.70;;;;;;5053390;28;20511;-76
2024/04/05 07:03:39;;;;;;;0.43;0.20;;;13.70;63.10;;;;;;5052645;28;20059;-71
2024/04/05 07:06:06;;;;;;;0.45;0.30;;;13.90;62.60;;;;;;5042703;28;20068;-71
2024/04/05 07:08:32;;;;;;;0.17;0.17;;;14.10;62.00;;;;;;5052556;28;20045;-76
2024/04/05 07:10:58;;;;;;;1.67;1.27;;;14.30;61.40;;;;;;5033941;28;20068;-71
2024/04/05 07:13:25;;;;;;;;;;;14.50;60.90;;;;;;5039450;28;20375;-72
2024/04/05 07:15:52;;;;;;;;;;;14.70;60.90;;;;;;5052873;28;19921;-76
2024/04/05 07:18:22;;;;;;;0.57;0.30;;;14.90;59.50;;;;;;5037992;28;19917;-75
2024/04/05 07:20:48;;;;;;;0.55;0.17;;;15.10;58.70;;;;;;5032207;28;20033;-71
2024/04/05 07:23:14;;;;;;;0.20;0.20;;;15.30;58.00;;;;;;5033330;28;20072;-71
2024/04/05 07:25:40;;;;;;;0.68;0.45;;;15.60;57.20;;;;;;5032103;28;20375;-71
2024/04/05 07:28:06;;;;;;;0.20;0.20;;;16.10;57.00;;;;;;5031670;28;20029;-71
2024/04/05 07:30:36;;;;;;;0.80;0.57;;;16.50;54.90;;;;;;5032926;28;20041;-71
2024/04/05 07:33:03;;;;;;;0.60;0.32;;;16.90;55.40;;;;;;5023836;28;20514;-71
2024/04/05 07:35:30;;;;;;;0.60;0.30;;;17.20;53.50;;;;;;5032072;28;20060;-75
2024/04/05 07:37:57;;;;;;;1.15;1.05;;;17.80;53.40;;;;;;5033035;28;20029;-71
2024/04/05 07:40:25;;;;;;;3.30;1.48;;;18.40;52.50;;;;;;5046274;28;20029;-76
2024/04/05 07:42:54;;;;;;;0.50;0.35;;;19.10;51.80;;;;;;5041294;28;20078;-72
2024/04/05 07:45:23;;;;;;;0.10;0.10;;;19.70;48.70;;;;;;5036805;28;20025;-72
2024/04/05 07:47:49;;;;;;;0.47;0.20;;;20.40;46.50;;;;;;5043388;28;20118;-72
2024/04/05 07:50:16;;;;;;;0.17;0.10;;;21.00;43.90;;;;;;5050246;28;20040;-72
2024/04/05 07:52:43;;;;;;;0.30;0.30;;;21.60;43.20;;;;;;5060403;28;20043;-72
2024/04/05 07:55:09;;;;;;;0.20;0.20;;;22.30;41.60;;;;;;5051749;28;20263;-72
2024/04/05 07:57:39;;;;;;;1.58;0.73;;;22.80;39.90;;;;;;5042793;28;20382;-76
2024/04/05 08:00:13;;;;;;;0.50;0.50;;;23.30;37.40;;;;;;5032592;28;20042;-77
2024/04/05 08:02:59;;;;;;;0.22;0.22;;;23.90;36.50;;;;;;5053861;28;20045;-77
2024/04/05 08:05:25;;;;;;;8.68;0.43;;;24.60;35.90;;;;;;5039529;28;20095;-72
2024/04/05 08:07:51;;;;;;;1.00;0.65;;;25.20;33.70;;;;;;5032278;28;20041;-72
2024/04/05 08:10:17;;;;;;;0.80;0.55;;;25.70;32.40;;;;;;5031758;28;20025;-72
2024/04/05 08:12:44;;;;;;;2.08;0.82;;;26.30;30.20;;;;;;5031221;28;20036;-72
2024/04/05 08:15:11;;;;;;;0.40;0.40;;;26.80;28.90;;;;;;5047798;28;20040;-72
2024/04/05 08:17:38;;;;;;;0.88;0.60;;;27.40;28.80;;;;;;5034343;28;20560;-72
2024/04/05 08:20:07;;;;;;;2.95;0.30;;;27.70;27.90;;;;;;5031326;28;20046;-75
2024/04/05 08:22:34;;;;;;;0.30;0.30;;;28.00;27.40;;;;;;5049310;28;20102;-72
2024/04/05 08:25:00;;;;;;;0.47;0.30;;;28.40;25.70;;;;;;5051203;28;20041;-76
2024/04/05 08:27:28;;;;;;;0.57;0.45;;;28.70;26.20;;;;;;5052511;28;20404;-75
2024/04/05 08:29:54;;;;;;;0.38;0.30;;;29.20;26.20;;;;;;5050215;28;20486;-72
2024/04/05 08:32:22;;;;;;;0.82;0.55;;;29.50;25.20;;;;;;5050293;28;20040;-73
2024/04/05 08:34:48;;;;;;;0.40;0.40;;;30.10;25.30;;;;;;5031353;28;20634;-72
2024/04/05 08:37:15;;;;;;;0.43;0.40;;;30.50;24.10;;;;;;5031565;28;20132;-74
2024/04/05 08:39:41;;;;;;;0.60;0.60;;;30.70;23.70;;;;;;5050108;28;20043;-76
2024/04/05 08:42:31;;;;;;;0.77;0.60;;;31.50;23.70;;;;;;5040023;28;20391;-75
2024/04/05 08:44:57;;;;;;;0.85;0.60;;;32.20;22.60;;;;;;5042994;28;20057;-73
2024/04/05 08:47:25;;;;;;;0.90;0.70;;;32.70;20.90;;;;;;5050428;28;20056;-73
2024/04/05 08:49:54;;;;;;;7.45;4.05;;;32.90;19.90;;;;;;5033329;28;20088;-75
2024/04/05 08:52:20;;;;;;;6.70;1.48;;;33.10;20.10;;;;;;5030208;28;20061;-75
2024/04/05 08:54:47;;;;;;;0.73;0.50;;;33.50;19.20;;;;;;5031874;28;20033;-73
2024/04/05 08:57:15;;;;;;;0.32;0.32;;;34.00;19.10;;;;;;5050451;28;20040;-73
2024/04/05 08:59:50;;;;;;;0.80;0.50;;;34.00;18.70;;;;;;5050453;28;20033;-73
2024/04/05 09:02:17;;;;;;;0.40;0.33;;;34.20;18.40;;;;;;5035580;28;20041;-75
2024/04/05 09:04:43;;;;;;;0.30;0.30;;;34.00;18.60;;;;;;5030384;28;20460;-73
2024/04/05 09:07:10;;;;;;;0.40;0.40;;;34.50;17.90;;;;;;5031747;28;20029;-73
2024/04/05 09:09:37;;;;;;;0.52;0.52;;;34.70;17.50;;;;;;5031687;28;20491;-75
2024/04/05 09:12:22;;;;;;;1.27;0.95;;;35.20;17.90;;;;;;5035183;28;20033;-76
2024/04/05 09:15:07;;;;;;;0.88;0.50;;;35.70;17.40;;;;;;5050150;28;20063;-74
2024/04/05 09:17:34;;;;;;;0.40;0.40;;;36.30;16.30;;;;;;5051637;28;20071;-73
2024/04/05 09:20:39;;;;;;;0.40;0.40;;;36.40;16.10;;;;;;5050013;28;20115;-74
2024/04/05 09:23:06;;;;;;;0.80;0.70;;;36.00;16.60;;;;;;5050882;28;20095;-73
2024/04/05 09:25:35;;;;;;;0.45;0.43;;;36.00;16.50;;;;;;5033363;28;20032;-73
2024/04/05 09:28:20;;;;;;;1.00;0.73;;;36.10;16.40;;;;;;5051243;28;20041;-75
2024/04/05 09:30:48;;;;;;;0.55;0.50;;;36.40;16.00;;;;;;5048879;28;20461;-73
2024/04/05 09:33:33;;;;;;;1.02;0.80;;;36.60;16.10;;;;;;5051516;28;20112;-74
2024/04/05 09:36:03;;;;;;;0.28;0.28;;;37.10;16.00;;;;;;5051089;28;20450;-76
2024/04/05 09:38:34;;;;;;;0.93;0.60;;;37.80;15.00;;;;;;5043418;28;20045;-76
2024/04/05 09:41:01;;;;;;;6.43;5.50;;;38.10;15.50;;;;;;5049363;28;20064;-75
2024/04/05 09:43:27;;;;;;;7.18;4.43;;;38.40;14.90;;;;;;5049785;28;20033;-73
2024/04/05 09:45:53;;;;;;;4.10;3.25;;;38.70;13.90;;;;;;5049142;28;20090;-76
2024/04/05 09:48:21;;;;;;;0.68;0.50;;;38.40;13.40;;;;;;5037842;28;20560;-76
2024/04/05 09:50:49;;;;;;;0.60;0.60;;;37.80;14.70;;;;;;5030753;28;20050;-76
2024/04/05 09:53:18;;;;;;;4.50;3.33;;;37.80;14.70;;;;;;5031225;28;20033;-73
2024/04/05 09:55:49;;;;;;;0.50;0.50;;;38.10;14.10;;;;;;5030888;28;20398;-73
2024/04/05 09:58:15;;;;;;;1.02;0.40;;;37.70;13.90;;;;;;5030549;28;20523;-74
2024/04/05 10:00:43;;;;;;;1.10;0.98;;;38.10;15.00;;;;;;5017816;28;20064;-76
2024/04/05 10:03:09;;;;;;;1.33;0.75;;;38.70;14.40;;;;;;5038958;28;20028;-72
2024/04/05 10:05:35;;;;;;;1.42;1.00;;;38.80;13.20;;;;;;5031666;28;20128;-74
2024/04/05 10:08:20;;;;;;;0.40;0.38;;;38.80;13.90;;;;;;5036999;28;20029;-77
2024/04/05 10:10:47;;;;;;;0.60;0.60;;;39.00;14.30;;;;;;5036938;28;20034;-73
2024/04/05 10:13:32;;;;;;;7.15;3.35;;;39.20;14.40;;;;;;5032084;28;20573;-73
2024/04/05 10:16:01;;;;;;;6.47;2.28;;;39.90;12.80;;;;;;5030804;28;20034;-73
2024/04/05 10:18:47;;;;;;;3.22;2.00;;;40.60;12.50;;;;;;5036814;28;20026;-77
2024/04/05 10:21:13;;;;;;;3.00;2.35;;;41.30;11.90;;;;;;5041851;28;20052;-73
2024/04/05 10:23:44;;;;;;;1.40;1.30;;;41.30;12.30;;;;;;5031928;28;20042;-73
2024/04/05 10:26:13;;;;;;;0.30;0.30;;;41.50;12.30;;;;;;5029074;28;20485;-74
2024/04/05 10:28:40;;;;;;;0.70;0.70;;;41.20;11.80;;;;;;5054875;28;20033;-72
2024/04/05 10:31:06;;;;;;;0.73;0.73;;;41.20;11.70;;;;;;5046107;28;20128;-73
2024/04/05 10:33:33;;;;;;;0.57;0.50;;;42.10;11.10;;;;;;5040768;28;20473;-73
2024/04/05 10:36:00;;;;;;;0.77;0.60;;;42.90;10.90;;;;;;5030491;28;20047;-77
2024/04/05 10:38:27;;;;;;;0.80;0.70;;;43.60;10.00;;;;;;5044240;28;20106;-73
2024/04/05 10:41:14;;;;;;;0.40;0.40;;;43.40;10.60;;;;;;5032908;28;20061;-76
2024/04/05 10:43:40;;;;;;;0.85;0.70;;;43.10;10.80;;;;;;5035326;28;20108;-76
2024/04/05 10:46:06;;;;;;;0.57;0.57;;;43.20;10.80;;;;;;5042271;28;20393;-73
2024/04/05 10:48:32;;;;;;;0.50;0.50;;;43.10;10.80;;;;;;5048804;28;20033;-76
2024/04/05 10:50:58;;;;;;;0.68;0.68;;;42.70;9.90;;;;;;5043309;28;20048;-76
2024/04/05 10:53:24;;;;;;;0.90;0.90;;;42.40;10.60;;;;;;5030834;28;20045;-76
2024/04/05 10:55:53;;;;;;;0.95;0.90;;;41.60;11.40;;;;;;5049014;28;20563;-75
2024/04/05 10:58:19;;;;;;;0.70;0.70;;;41.50;11.10;;;;;;5052268;28;20124;-73
2024/04/05 11:00:46;;;;;;;7.30;1.60;;;41.50;11.40;;;;;;5049857;28;20368;-73
2024/04/05 11:06:04;;;;;;;0.60;0.60;;;41.20;11.70;;;;;;5032430;28;20096;-73
2024/04/05 11:08:31;;;;;;;0.50;0.50;;;40.70;12.10;;;;;;5032377;28;20474;-73
2024/04/05 11:10:58;;;;;;;2.80;1.13;;;40.90;11.80;;;;;;5051821;28;20041;-73
2024/04/05 11:13:26;;;;;;;0.57;0.55;;;41.90;10.90;;;;;;5040838;28;20051;-73
2024/04/05 11:16:15;;;;;;;1.10;0.77;;;42.40;10.80;;;;;;5058978;28;20033;-76
2024/04/05 11:18:41;;;;;;;0.98;0.80;;;42.40;10.40;;;;;;5033710;28;20498;-76
2024/04/05 11:21:15;;;;;;;0.75;0.70;;;43.40;10.50;;;;;;5032679;28;20399;-76
2024/04/05 11:24:00;;;;;;;0.52;0.52;;;44.00;9.30;;;;;;5046194;28;20027;-73
2024/04/05 11:26:32;;;;;;;0.60;0.60;;;43.70;9.70;;;;;;5045722;28;20037;-73
2024/04/05 11:29:02;;;;;;;0.70;0.70;;;43.90;9.20;;;;;;5044610;28;20091;-73
2024/04/05 11:31:30;;;;;;;0.40;0.40;;;44.30;9.20;;;;;;5035508;28;20102;-76
2024/04/05 11:33:57;;;;;;;3.33;2.08;;;44.40;9.70;;;;;;5051980;28;20500;-76
2024/04/05 11:36:23;;;;;;;2.25;1.02;;;44.90;9.00;;;;;;5034122;28;20042;-77
2024/04/05 11:38:51;;;;;;;0.77;0.77;;;45.40;8.40;;;;;;5033041;28;20037;-77
2024/04/05 11:41:18;;;;;;;1.88;1.33;;;45.30;9.00;;;;;;5032980;28;20064;-76
2024/04/05 11:43:45;;;;;;;0.70;0.70;;;45.10;9.40;;;;;;5044331;28;20498;-76
2024/04/05 11:46:12;;;;;;;0.50;0.50;;;44.40;9.60;;;;;;5037697;28;20037;-77
2024/04/05 11:48:38;;;;;;;1.23;1.05;;;44.00;9.10;;;;;;5045351;28;20061;-76
2024/04/05 11:51:07;;;;;;;0.80;0.80;;;42.90;9.50;;;;;;5025758;28;20046;-73
2024/04/05 11:53:34;;;;;;;0.80;0.80;;;41.80;10.00;;;;;;5011915;28;20034;-72
2024/04/05 11:56:03;;;;;;;0.77;0.77;;;42.20;10.70;;;;;;5031471;28;20092;-72
2024/04/05 11:58:31;;;;;;;0.70;0.70;;;42.20;10.60;;;;;;5031480;28;20061;-73
2024/04/05 12:00:58;;;;;;;0.55;0.55;;;43.40;10.10;;;;;;5014423;28;20042;-77
2024/04/05 12:03:25;;;;;;;0.65;0.60;;;44.20;10.40;;;;;;5027343;28;20482;-73
2024/04/05 12:05:51;;;;;;;6.05;0.90;;;45.00;9.20;;;;;;5032628;28;20041;-76
2024/04/05 12:08:17;;;;;;;0.88;0.88;;;45.50;9.60;;;;;;5030097;28;20482;-73
2024/04/05 12:10:43;;;;;;;0.60;0.60;;;45.30;9.40;;;;;;5046230;28;20041;-72
2024/04/05 12:13:09;;;;;;;0.70;0.70;;;46.00;9.40;;;;;;5020928;28;20092;-73
2024/04/05 12:15:37;;;;;;;0.70;0.70;;;46.40;8.30;;;;;;5022583;28;20022;-73
2024/04/05 12:18:05;;;;;;;1.10;1.00;;;46.80;7.70;;;;;;5032375;28;20116;-76
2024/04/05 12:20:31;;;;;;;0.75;0.70;;;47.20;8.40;;;;;;5003342;28;20048;-73
2024/04/05 12:22:57;;;;;;;0.70;0.70;;;47.70;7.50;;;;;;5028068;28;20063;-76
2024/04/05 12:25:24;;;;;;;1.15;1.05;;;48.00;7.30;;;;;;5027579;28;20030;-76
2024/04/05 12:27:52;;;;;;;0.70;0.70;;;48.70;7.10;;;;;;5014578;28;20045;-74
2024/04/05 12:30:19;;;;;;;1.48;1.20;;;48.20;7.70;;;;;;5032886;28;20075;-73
2024/04/05 12:32:46;;;;;;;0.70;0.70;;;48.60;7.20;;;;;;5048856;28;20433;-77
2024/04/05 12:35:12;;;;;;;0.73;0.73;;;49.20;7.30;;;;;;5050499;28;20033;-73
2024/04/05 12:37:38;;;;;;;0.80;0.80;;;49.80;7.20;;;;;;5050437;28;20025;-77
2024/04/05 12:40:15;;;;;;;1.00;1.00;;;49.50;7.60;;;;;;5050247;28;20037;-73
2024/04/05 12:42:41;;;;;;;1.13;1.02;;;50.00;7.50;;;;;;5050665;28;20555;-77
2024/04/05 12:45:08;;;;;;;1.10;1.00;;;50.40;6.20;;;;;;5050387;28;20033;-77
2024/04/05 12:47:37;;;;;;;1.55;1.27;;;49.20;7.20;;;;;;5032956;28;20520;-73
2024/04/05 12:50:04;;;;;;;0.75;0.73;;;48.70;7.40;;;;;;5047597;28;20437;-76
2024/04/05 12:52:31;;;;;;;1.23;1.10;;;48.80;7.20;;;;;;5011005;28;20038;-72
2024/04/05 12:54:57;;;;;;;0.80;0.80;;;48.70;6.70;;;;;;5026342;28;20042;-73
2024/04/05 12:57:23;;;;;;;1.02;0.90;;;48.60;6.60;;;;;;5029634;28;20026;-72
2024/04/05 12:59:50;;;;;;;0.80;0.80;;;47.60;8.00;;;;;;5012911;28;20410;-77
2024/04/05 13:02:19;;;;;;;1.20;1.10;;;46.20;8.00;;;;;;5026960;28;20048;-76
2024/04/05 13:04:45;;;;;;;0.85;0.85;;;46.10;8.90;;;;;;5013566;28;20041;-73
2024/04/05 13:07:11;;;;;;;1.20;1.10;;;46.50;8.00;;;;;;5022559;28;20116;-76